createdAt,value
2023-04-15T00:00:53.353Z,25.54
2023-04-15T00:01:53.433Z,25.52
2023-04-15T00:02:53.448Z,25.54
2023-04-15T00:03:53.455Z,25.54
2023-04-15T00:04:53.370Z,25.54
2023-04-15T00:05:53.300Z,25.54
2023-04-15T00:06:53.302Z,25.52
2023-04-15T00:07:53.298Z,25.52
2023-04-15T00:08:53.290Z,25.52
2023-04-15T00:09:53.274Z,25.51
2023-04-15T00:10:53.297Z,25.52
2023-04-15T00:11:53.268Z,25.54
2023-04-15T00:12:53.257Z,25.51
2023-04-15T00:13:53.247Z,25.51
2023-04-15T00:14:53.233Z,25.52
2023-04-15T00:15:53.219Z,25.54
2023-04-15T00:16:53.264Z,25.54
2023-04-15T00:17:53.234Z,25.52
2023-04-15T00:18:53.206Z,25.52
2023-04-15T00:19:53.180Z,25.54
2023-04-15T00:20:53.173Z,25.51
2023-04-15T00:21:53.180Z,25.49
2023-04-15T00:22:53.187Z,25.52
2023-04-15T00:23:53.173Z,25.52
2023-04-15T00:24:53.162Z,25.51
2023-04-15T00:25:53.160Z,25.51
2023-04-15T00:26:53.173Z,25.52
2023-04-15T00:27:53.142Z,25.52
2023-04-15T00:28:53.137Z,25.52
2023-04-15T00:29:53.143Z,25.52
2023-04-15T00:30:53.271Z,25.52
2023-04-15T00:31:53.115Z,25.48
2023-04-15T00:32:53.147Z,25.51
2023-04-15T00:33:53.105Z,25.49
2023-04-15T00:34:53.116Z,25.49
2023-04-15T00:35:53.079Z,25.51
2023-04-15T00:36:53.085Z,25.51
2023-04-15T00:37:53.071Z,25.51
2023-04-15T00:38:53.066Z,25.54
2023-04-15T00:39:53.063Z,25.51
2023-04-15T00:40:53.059Z,25.52
2023-04-15T00:41:53.057Z,25.49
2023-04-15T00:42:53.081Z,25.52
2023-04-15T00:43:53.045Z,25.48
2023-04-15T00:44:53.038Z,25.48
2023-04-15T00:45:53.087Z,25.49
2023-04-15T00:46:53.052Z,25.49
2023-04-15T00:47:53.105Z,25.48
2023-04-15T00:48:53.047Z,25.51
2023-04-15T00:49:53.034Z,25.51
2023-04-15T00:50:53.010Z,25.47
2023-04-15T00:51:53.005Z,25.47
2023-04-15T00:52:52.999Z,25.47
2023-04-15T00:53:52.999Z,25.49
2023-04-15T00:54:52.983Z,25.51
2023-04-15T00:55:52.989Z,25.48
2023-04-15T00:56:52.997Z,25.49
2023-04-15T00:57:53.031Z,25.49
2023-04-15T00:58:53.073Z,25.48
2023-04-15T00:59:53.080Z,25.47
2023-04-15T01:00:53.106Z,25.48
2023-04-15T01:01:53.200Z,25.47
2023-04-15T01:02:53.271Z,25.48
2023-04-15T01:03:53.280Z,25.48
2023-04-15T01:04:53.191Z,25.48
2023-04-15T01:05:53.216Z,25.47
2023-04-15T01:06:53.240Z,25.48
2023-04-15T01:07:53.270Z,25.48
2023-04-15T01:08:53.287Z,25.48
2023-04-15T01:09:53.297Z,25.48
2023-04-15T01:10:53.316Z,25.47
2023-04-15T01:11:53.334Z,25.49
2023-04-15T01:12:53.357Z,25.45
2023-04-15T01:13:53.382Z,25.47
2023-04-15T01:14:53.433Z,25.45
2023-04-15T01:15:53.467Z,25.48
2023-04-15T01:16:53.445Z,25.48
2023-04-15T01:17:53.495Z,25.47
2023-04-15T01:18:53.491Z,25.47
2023-04-15T01:19:53.503Z,25.47
2023-04-15T01:20:53.533Z,25.47
2023-04-15T01:21:53.546Z,25.47
2023-04-15T01:22:53.566Z,25.49
2023-04-15T01:23:53.585Z,25.48
2023-04-15T01:24:53.599Z,25.48
2023-04-15T01:25:53.612Z,25.49
2023-04-15T01:26:53.637Z,25.47
2023-04-15T01:27:53.661Z,25.48
2023-04-15T01:28:53.678Z,25.49
2023-04-15T01:29:53.705Z,25.47
2023-04-15T01:30:53.744Z,25.47
2023-04-15T01:31:53.823Z,25.48
2023-04-15T01:32:53.773Z,25.48
2023-04-15T01:33:53.801Z,25.48
2023-04-15T01:34:53.806Z,25.48
2023-04-15T01:35:53.824Z,25.47
2023-04-15T01:36:53.847Z,25.47
2023-04-15T01:37:53.875Z,25.49
2023-04-15T01:38:53.888Z,25.48
2023-04-15T01:39:53.913Z,25.48
2023-04-15T01:40:53.926Z,25.47
2023-04-15T01:41:53.942Z,25.48
2023-04-15T01:42:53.962Z,25.47
2023-04-15T01:43:53.986Z,25.47
2023-04-15T01:44:54.008Z,25.47
2023-04-15T01:45:54.036Z,25.48
2023-04-15T01:46:54.109Z,25.47
2023-04-15T01:47:54.134Z,25.47
2023-04-15T01:48:54.150Z,25.47
2023-04-15T01:49:54.125Z,25.48
2023-04-15T01:50:54.153Z,25.47
2023-04-15T01:51:54.205Z,25.45
2023-04-15T01:52:54.203Z,25.48
2023-04-15T01:53:54.221Z,25.47
2023-04-15T01:54:54.248Z,25.48
2023-04-15T01:55:54.268Z,25.45
2023-04-15T01:56:54.296Z,25.49
2023-04-15T01:57:54.329Z,25.48
2023-04-15T01:58:54.362Z,25.49
2023-04-15T01:59:54.382Z,25.44
2023-04-15T02:00:54.428Z,25.47
2023-04-15T02:01:54.458Z,25.44
2023-04-15T02:02:54.505Z,25.47
2023-04-15T02:03:54.522Z,25.45
2023-04-15T02:04:54.509Z,25.47
2023-04-15T02:05:54.529Z,25.47
2023-04-15T02:06:54.561Z,25.45
2023-04-15T02:07:54.576Z,25.44
2023-04-15T02:08:54.598Z,25.42
2023-04-15T02:09:54.612Z,25.44
2023-04-15T02:10:54.629Z,25.44
2023-04-15T02:11:54.662Z,25.45
2023-04-15T02:12:54.685Z,25.45
2023-04-15T02:13:54.753Z,25.47
2023-04-15T02:14:54.730Z,25.41
2023-04-15T02:15:54.755Z,25.45
2023-04-15T02:16:54.848Z,25.44
2023-04-15T02:17:54.833Z,25.45
2023-04-15T02:18:54.850Z,25.45
2023-04-15T02:19:54.846Z,25.45
2023-04-15T02:20:54.872Z,25.45
2023-04-15T02:21:54.906Z,25.45
2023-04-15T02:22:54.935Z,25.47
2023-04-15T02:23:54.958Z,25.47
2023-04-15T02:24:54.982Z,25.47
2023-04-15T02:25:55.008Z,25.44
2023-04-15T02:26:55.029Z,25.47
2023-04-15T02:27:55.048Z,25.45
2023-04-15T02:28:55.069Z,25.47
2023-04-15T02:29:55.105Z,25.45
2023-04-15T02:30:55.112Z,25.45
2023-04-15T02:31:55.194Z,25.44
2023-04-15T02:32:55.217Z,25.44
2023-04-15T02:33:55.165Z,25.44
2023-04-15T02:34:55.215Z,25.45
2023-04-15T02:35:55.211Z,25.47
2023-04-15T02:36:55.237Z,25.45
2023-04-15T02:37:55.257Z,25.45
2023-04-15T02:38:55.275Z,25.45
2023-04-15T02:39:55.304Z,25.45
2023-04-15T02:40:55.323Z,25.47
2023-04-15T02:41:55.369Z,25.45
2023-04-15T02:42:55.381Z,25.44
2023-04-15T02:43:55.405Z,25.45
2023-04-15T02:44:55.433Z,25.42
2023-04-15T02:45:55.492Z,25.45
2023-04-15T02:46:55.480Z,25.44
2023-04-15T02:47:55.530Z,25.42
2023-04-15T02:48:55.525Z,25.42
2023-04-15T02:49:55.560Z,25.47
2023-04-15T02:50:55.599Z,25.42
2023-04-15T02:51:55.604Z,25.44
2023-04-15T02:52:55.727Z,25.45
2023-04-15T02:53:55.670Z,25.44
2023-04-15T02:54:55.701Z,25.44
2023-04-15T02:55:55.732Z,25.41
2023-04-15T02:56:55.755Z,25.41
2023-04-15T02:57:56.057Z,25.45
2023-04-15T02:58:55.816Z,25.42
2023-04-15T02:59:55.852Z,25.44
2023-04-15T03:00:55.898Z,25.44
2023-04-15T03:01:55.994Z,25.45
2023-04-15T03:02:56.033Z,25.44
2023-04-15T03:03:56.076Z,25.44
2023-04-15T03:04:55.971Z,25.45
2023-04-15T03:05:55.990Z,25.42
2023-04-15T03:06:56.075Z,25.45
2023-04-15T03:07:56.039Z,25.44
2023-04-15T03:08:56.068Z,25.42
2023-04-15T03:09:56.087Z,25.45
2023-04-15T03:10:56.103Z,25.44
2023-04-15T03:11:56.119Z,25.42
2023-04-15T03:12:56.132Z,25.45
2023-04-15T03:13:56.142Z,25.44
2023-04-15T03:14:56.160Z,25.45
2023-04-15T03:15:56.258Z,25.42
2023-04-15T03:16:56.169Z,25.41
2023-04-15T03:17:56.288Z,25.42
2023-04-15T03:18:56.202Z,25.44
2023-04-15T03:19:56.277Z,25.41
2023-04-15T03:20:56.226Z,25.45
2023-04-15T03:21:56.248Z,25.44
2023-04-15T03:22:56.271Z,25.42
2023-04-15T03:23:56.272Z,25.45
2023-04-15T03:24:56.276Z,25.44
2023-04-15T03:25:56.298Z,25.42
2023-04-15T03:26:56.298Z,25.44
2023-04-15T03:27:56.313Z,25.42
2023-04-15T03:28:56.325Z,25.41
2023-04-15T03:29:56.340Z,25.44
2023-04-15T03:30:56.373Z,25.42
2023-04-15T03:31:56.350Z,25.42
2023-04-15T03:32:56.464Z,25.42
2023-04-15T03:33:56.384Z,25.41
2023-04-15T03:34:56.398Z,25.44
2023-04-15T03:35:56.406Z,25.42
2023-04-15T03:36:56.419Z,25.42
2023-04-15T03:37:56.422Z,25.41
2023-04-15T03:38:56.464Z,25.41
2023-04-15T03:39:56.486Z,25.41
2023-04-15T03:40:56.462Z,25.42
2023-04-15T03:41:56.485Z,25.41
2023-04-15T03:42:56.513Z,25.42
2023-04-15T03:43:56.514Z,25.42
2023-04-15T03:44:56.537Z,25.42
2023-04-15T03:45:56.556Z,25.42
2023-04-15T03:46:56.592Z,25.41
2023-04-15T03:47:58.614Z,25.42
2023-04-15T03:48:56.552Z,25.41
2023-04-15T03:49:56.551Z,25.42
2023-04-15T03:50:56.554Z,25.42
2023-04-15T03:51:56.557Z,25.42
2023-04-15T03:52:56.555Z,25.42
2023-04-15T03:53:56.562Z,25.45
2023-04-15T03:54:56.592Z,25.42
2023-04-15T03:55:56.572Z,25.41
2023-04-15T03:56:56.571Z,25.44
2023-04-15T03:57:56.572Z,25.42
2023-04-15T03:58:56.617Z,25.40
2023-04-15T03:59:56.549Z,25.42
2023-04-15T04:00:56.541Z,25.42
2023-04-15T04:01:56.622Z,25.41
2023-04-15T04:02:56.722Z,25.44
2023-04-15T04:03:56.738Z,25.42
2023-04-15T04:04:56.530Z,25.42
2023-04-15T04:05:56.520Z,25.41
2023-04-15T04:06:56.502Z,25.42
2023-04-15T04:07:56.496Z,25.41
2023-04-15T04:08:56.499Z,25.42
2023-04-15T04:09:56.493Z,25.42
2023-04-15T04:10:56.520Z,25.42
2023-04-15T04:11:56.493Z,25.42
2023-04-15T04:12:56.490Z,25.42
2023-04-15T04:13:56.499Z,25.42
2023-04-15T04:14:56.487Z,25.44
2023-04-15T04:15:56.510Z,25.45
2023-04-15T04:16:56.494Z,25.44
2023-04-15T04:17:56.609Z,25.42
2023-04-15T04:18:56.483Z,25.44
2023-04-15T04:19:56.488Z,25.42
2023-04-15T04:20:56.486Z,25.44
2023-04-15T04:21:56.491Z,25.44
2023-04-15T04:22:56.489Z,25.42
2023-04-15T04:23:56.488Z,25.42
2023-04-15T04:24:56.493Z,25.45
2023-04-15T04:25:56.499Z,25.41
2023-04-15T04:26:56.516Z,25.40
2023-04-15T04:27:56.490Z,25.44
2023-04-15T04:28:56.477Z,25.42
2023-04-15T04:29:56.461Z,25.40
2023-04-15T04:30:56.481Z,25.44
2023-04-15T04:31:56.491Z,25.41
2023-04-15T04:32:56.493Z,25.40
2023-04-15T04:33:56.443Z,25.42
2023-04-15T04:34:56.448Z,25.41
2023-04-15T04:35:56.433Z,25.42
2023-04-15T04:36:56.447Z,25.40
2023-04-15T04:37:56.431Z,25.41
2023-04-15T04:38:56.454Z,25.40
2023-04-15T04:39:56.426Z,25.42
2023-04-15T04:40:56.424Z,25.42
2023-04-15T04:41:56.417Z,25.41
2023-04-15T04:42:56.433Z,25.40
2023-04-15T04:43:56.397Z,25.41
2023-04-15T04:44:56.392Z,25.41
2023-04-15T04:45:56.403Z,25.42
2023-04-15T04:46:56.380Z,25.38
2023-04-15T04:47:56.436Z,25.41
2023-04-15T04:48:56.366Z,25.41
2023-04-15T04:49:56.385Z,25.40
2023-04-15T04:50:56.368Z,25.41
2023-04-15T04:51:56.364Z,25.41
2023-04-15T04:52:56.355Z,25.42
2023-04-15T04:53:56.348Z,25.42
2023-04-15T04:54:56.349Z,25.42
2023-04-15T04:55:56.366Z,25.42
2023-04-15T04:56:56.344Z,25.41
2023-04-15T04:57:56.334Z,25.41
2023-04-15T04:58:56.363Z,25.44
2023-04-15T04:59:56.333Z,25.44
2023-04-15T05:00:56.325Z,25.42
2023-04-15T05:01:56.360Z,25.41
2023-04-15T05:02:56.395Z,25.42
2023-04-15T05:03:56.554Z,25.45
2023-04-15T05:04:56.313Z,25.41
2023-04-15T05:05:56.349Z,25.44
2023-04-15T05:06:56.405Z,25.44
2023-04-15T05:07:56.371Z,25.41
2023-04-15T05:08:56.373Z,25.41
2023-04-15T05:09:56.408Z,25.41
2023-04-15T05:10:56.418Z,25.41
2023-04-15T05:11:56.432Z,25.44
2023-04-15T05:12:56.435Z,25.41
2023-04-15T05:13:56.452Z,25.44
2023-04-15T05:14:56.487Z,25.41
2023-04-15T05:15:56.513Z,25.42
2023-04-15T05:16:56.498Z,25.42
2023-04-15T05:17:56.591Z,25.44
2023-04-15T05:18:56.528Z,25.42
2023-04-15T05:19:56.550Z,25.42
2023-04-15T05:20:56.566Z,25.42
2023-04-15T05:21:56.567Z,25.42
2023-04-15T05:22:56.591Z,25.45
2023-04-15T05:23:56.596Z,25.44
2023-04-15T05:24:56.652Z,25.42
2023-04-15T05:25:56.621Z,25.47
2023-04-15T05:26:56.648Z,25.47
2023-04-15T05:27:56.660Z,25.45
2023-04-15T05:28:56.697Z,25.45
2023-04-15T05:29:56.707Z,25.44
2023-04-15T05:30:56.781Z,25.45
2023-04-15T05:31:56.735Z,25.45
2023-04-15T05:32:56.784Z,25.44
2023-04-15T05:33:56.772Z,25.44
2023-04-15T05:34:56.785Z,25.44
2023-04-15T05:35:56.815Z,25.44
2023-04-15T05:36:56.821Z,25.47
2023-04-15T05:37:56.838Z,25.42
2023-04-15T05:38:56.857Z,25.44
2023-04-15T05:39:56.877Z,25.48
2023-04-15T05:40:56.901Z,25.45
2023-04-15T05:41:56.914Z,25.45
2023-04-15T05:42:56.924Z,25.44
2023-04-15T05:43:56.950Z,25.45
2023-04-15T05:44:56.964Z,25.47
2023-04-15T05:45:57.021Z,25.45
2023-04-15T05:46:57.467Z,25.48
2023-04-15T05:47:57.052Z,25.45
2023-04-15T05:48:57.013Z,25.47
2023-04-15T05:49:57.042Z,25.45
2023-04-15T05:50:57.069Z,25.47
2023-04-15T05:51:57.444Z,25.45
2023-04-15T05:52:57.082Z,25.49
2023-04-15T05:53:57.092Z,25.45
2023-04-15T05:54:57.124Z,25.38
2023-04-15T05:55:57.168Z,24.95
2023-04-15T05:56:57.208Z,24.46
2023-04-15T05:57:57.267Z,23.98
2023-04-15T05:58:57.346Z,23.54
2023-04-15T05:59:57.446Z,23.37
2023-04-15T06:00:57.479Z,23.23
2023-04-15T06:01:57.584Z,23.21
2023-04-15T06:02:57.817Z,23.23
2023-04-15T06:03:57.897Z,23.32
2023-04-15T06:04:57.857Z,23.40
2023-04-15T06:05:57.848Z,23.49
2023-04-15T06:06:57.907Z,23.58
2023-04-15T06:07:57.974Z,23.68
2023-04-15T06:08:58.047Z,23.82
2023-04-15T06:09:58.089Z,23.95
2023-04-15T06:10:58.105Z,24.06
2023-04-15T06:11:58.139Z,24.19
2023-04-15T06:12:58.158Z,24.29
2023-04-15T06:13:58.238Z,24.43
2023-04-15T06:15:00.008Z,24.54
2023-04-15T06:15:58.344Z,24.63
2023-04-15T06:16:58.318Z,24.71
2023-04-15T06:17:58.353Z,24.81
2023-04-15T06:18:58.351Z,24.89
2023-04-15T06:19:58.331Z,24.97
2023-04-15T06:20:58.323Z,25.07
2023-04-15T06:21:58.314Z,25.17
2023-04-15T06:22:58.305Z,25.23
2023-04-15T06:23:58.311Z,25.33
2023-04-15T06:24:58.314Z,25.38
2023-04-15T06:25:58.317Z,25.44
2023-04-15T06:26:58.329Z,25.54
2023-04-15T06:27:58.318Z,25.60
2023-04-15T06:28:58.344Z,25.65
2023-04-15T06:29:58.292Z,25.71
2023-04-15T06:30:58.290Z,25.73
2023-04-15T06:31:58.343Z,25.76
2023-04-15T06:32:58.313Z,25.79
2023-04-15T06:33:58.271Z,25.83
2023-04-15T06:34:58.300Z,25.86
2023-04-15T06:35:58.276Z,25.90
2023-04-15T06:36:58.275Z,25.92
2023-04-15T06:37:58.282Z,25.95
2023-04-15T06:38:58.258Z,25.93
2023-04-15T06:39:58.245Z,25.96
2023-04-15T06:40:58.233Z,25.99
2023-04-15T06:41:58.240Z,26.01
2023-04-15T06:42:58.243Z,26.03
2023-04-15T06:43:58.271Z,26.04
2023-04-15T06:44:58.231Z,26.06
2023-04-15T06:45:58.338Z,26.07
2023-04-15T06:46:58.202Z,26.07
2023-04-15T06:47:58.223Z,26.07
2023-04-15T06:48:58.188Z,26.12
2023-04-15T06:49:58.217Z,26.14
2023-04-15T06:50:58.320Z,26.16
2023-04-15T06:51:58.304Z,26.19
2023-04-15T06:52:58.344Z,26.19
2023-04-15T06:53:58.394Z,26.21
2023-04-15T06:54:58.432Z,26.21
2023-04-15T06:55:58.467Z,26.24
2023-04-15T06:56:58.509Z,26.26
2023-04-15T06:57:58.551Z,26.28
2023-04-15T06:58:58.658Z,26.28
2023-04-15T06:59:58.634Z,26.30
2023-04-15T07:00:58.721Z,26.31
2023-04-15T07:01:58.749Z,26.30
2023-04-15T07:02:58.769Z,26.32
2023-04-15T07:03:58.796Z,26.34
2023-04-15T07:04:58.811Z,26.32
2023-04-15T07:05:58.844Z,26.35
2023-04-15T07:06:58.922Z,26.34
2023-04-15T07:07:58.930Z,26.30
2023-04-15T07:08:58.985Z,26.27
2023-04-15T07:09:59.051Z,26.26
2023-04-15T07:10:59.113Z,26.17
2023-04-15T07:11:59.202Z,26.14
2023-04-15T07:12:59.228Z,26.03
2023-04-15T07:13:59.231Z,25.96
2023-04-15T07:14:59.236Z,25.88
2023-04-15T07:15:59.258Z,25.85
2023-04-15T07:16:59.318Z,25.62
2023-04-15T07:17:59.378Z,25.31
2023-04-15T07:18:59.609Z,24.81
2023-04-15T07:19:59.447Z,24.17
2023-04-15T07:20:59.500Z,23.57
2023-04-15T07:21:59.569Z,23.29
2023-04-15T07:22:59.676Z,23.05
2023-04-15T07:23:59.726Z,22.77
2023-04-15T07:24:59.779Z,22.25
2023-04-15T07:25:59.878Z,21.98
2023-04-15T07:27:01.258Z,22.05
2023-04-15T07:28:00.062Z,22.08
2023-04-15T07:29:00.432Z,22.18
2023-04-15T07:30:00.214Z,22.31
2023-04-15T07:31:00.314Z,22.45
2023-04-15T07:32:00.372Z,22.60
2023-04-15T07:33:00.474Z,22.74
2023-04-15T07:34:00.488Z,22.93
2023-04-15T07:35:00.541Z,23.04
2023-04-15T07:36:00.608Z,23.16
2023-04-15T07:37:00.704Z,23.33
2023-04-15T07:38:00.775Z,23.46
2023-04-15T07:39:01.182Z,23.61
2023-04-15T07:40:00.915Z,23.74
2023-04-15T07:41:00.959Z,23.88
2023-04-15T07:42:00.998Z,24.04
2023-04-15T07:43:01.013Z,24.19
2023-04-15T07:44:01.056Z,24.30
2023-04-15T07:45:01.114Z,24.41
2023-04-15T07:46:01.246Z,24.55
2023-04-15T07:47:01.259Z,24.65
2023-04-15T07:48:01.378Z,24.77
2023-04-15T07:49:01.780Z,24.86
2023-04-15T07:50:01.401Z,24.96
2023-04-15T07:51:01.441Z,25.05
2023-04-15T07:52:01.466Z,25.13
2023-04-15T07:53:01.491Z,25.20
2023-04-15T07:54:01.503Z,25.27
2023-04-15T07:55:01.537Z,25.33
2023-04-15T07:56:01.535Z,25.40
2023-04-15T07:57:01.581Z,25.45
2023-04-15T07:58:01.550Z,25.49
2023-04-15T07:59:01.839Z,25.58
2023-04-15T08:00:01.586Z,25.62
2023-04-15T08:01:01.575Z,25.68
2023-04-15T08:02:01.666Z,25.72
2023-04-15T08:03:01.949Z,25.76
2023-04-15T08:04:01.783Z,25.80
2023-04-15T08:05:01.808Z,25.86
2023-04-15T08:06:01.861Z,25.88
2023-04-15T08:07:01.879Z,25.90
2023-04-15T08:08:01.906Z,25.92
2023-04-15T08:09:02.236Z,25.95
2023-04-15T08:10:02.136Z,25.97
2023-04-15T08:11:02.144Z,25.99
2023-04-15T08:12:02.221Z,26.03
2023-04-15T08:13:02.539Z,26.04
2023-04-15T08:14:02.312Z,26.07
2023-04-15T08:15:02.334Z,26.06
2023-04-15T08:16:02.429Z,26.07
2023-04-15T08:17:02.506Z,26.10
2023-04-15T08:18:02.488Z,26.12
2023-04-15T08:19:02.836Z,26.12
2023-04-15T08:20:02.595Z,26.16
2023-04-15T08:21:02.673Z,26.16
2023-04-15T08:22:02.701Z,26.19
2023-04-15T08:23:02.765Z,26.17
2023-04-15T08:24:02.806Z,26.17
2023-04-15T08:25:02.868Z,26.20
2023-04-15T08:26:03.070Z,26.23
2023-04-15T08:27:02.995Z,26.13
2023-04-15T08:28:03.002Z,26.01
2023-04-15T08:29:03.241Z,25.93
2023-04-15T08:30:04.969Z,25.83
2023-04-15T08:31:03.044Z,25.79
2023-04-15T08:32:03.045Z,25.78
2023-04-15T08:33:03.044Z,25.75
2023-04-15T08:34:03.041Z,25.76
2023-04-15T08:35:03.086Z,25.76
2023-04-15T08:36:03.034Z,25.76
2023-04-15T08:37:03.037Z,25.78
2023-04-15T08:38:03.020Z,25.82
2023-04-15T08:39:03.375Z,25.86
2023-04-15T08:40:03.016Z,25.89
2023-04-15T08:41:03.022Z,25.92
2023-04-15T08:42:03.018Z,25.99
2023-04-15T08:43:03.038Z,26.00
2023-04-15T08:44:03.010Z,26.04
2023-04-15T08:45:03.042Z,26.04
2023-04-15T08:46:02.990Z,26.08
2023-04-15T08:47:03.159Z,26.08
2023-04-15T08:48:03.022Z,26.10
2023-04-15T08:49:03.148Z,26.12
2023-04-15T08:50:02.968Z,26.13
2023-04-15T08:51:02.956Z,26.13
2023-04-15T08:52:02.939Z,26.14
2023-04-15T08:53:02.948Z,26.16
2023-04-15T08:54:03.517Z,26.19
2023-04-15T08:55:02.932Z,26.20
2023-04-15T08:56:02.936Z,26.21
2023-04-15T08:57:02.924Z,26.24
2023-04-15T08:58:02.916Z,26.27
2023-04-15T08:59:03.166Z,26.27
2023-04-15T09:00:05.209Z,26.31
2023-04-15T09:01:03.044Z,26.30
2023-04-15T09:02:03.007Z,26.30
2023-04-15T09:03:03.033Z,26.34
2023-04-15T09:04:03.017Z,26.34
2023-04-15T09:05:02.944Z,26.35
2023-04-15T09:06:02.925Z,26.34
2023-04-15T09:07:02.922Z,26.37
2023-04-15T09:08:02.932Z,26.35
2023-04-15T09:09:03.293Z,26.37
2023-04-15T09:10:02.871Z,26.37
2023-04-15T09:11:02.865Z,26.38
2023-04-15T09:12:02.865Z,26.38
2023-04-15T09:13:02.863Z,26.39
2023-04-15T09:14:02.842Z,26.35
2023-04-15T09:15:02.872Z,26.38
2023-04-15T09:16:02.838Z,26.38
2023-04-15T09:17:02.850Z,26.37
2023-04-15T09:18:02.912Z,26.38
2023-04-15T09:19:02.930Z,26.37
2023-04-15T09:20:02.784Z,26.37
2023-04-15T09:21:02.769Z,26.41
2023-04-15T09:22:02.769Z,26.39
2023-04-15T09:23:02.756Z,26.41
2023-04-15T09:24:02.967Z,26.41
2023-04-15T09:25:02.717Z,26.38
2023-04-15T09:26:02.699Z,26.41
2023-04-15T09:27:02.684Z,26.41
2023-04-15T09:28:02.687Z,26.39
2023-04-15T09:29:02.689Z,26.41
2023-04-15T09:30:02.700Z,26.42
2023-04-15T09:31:02.815Z,26.42
2023-04-15T09:32:02.768Z,26.45
2023-04-15T09:33:02.826Z,26.44
2023-04-15T09:34:02.960Z,26.45
2023-04-15T09:35:02.856Z,26.44
2023-04-15T09:36:02.893Z,26.44
2023-04-15T09:37:03.212Z,26.45
2023-04-15T09:38:02.954Z,26.45
2023-04-15T09:39:02.976Z,26.48
2023-04-15T09:40:03.009Z,26.45
2023-04-15T09:41:03.038Z,26.47
2023-04-15T09:42:03.098Z,26.38
2023-04-15T09:43:03.149Z,26.34
2023-04-15T09:44:03.421Z,26.28
2023-04-15T09:45:03.231Z,26.23
2023-04-15T09:46:03.328Z,26.20
2023-04-15T09:47:03.327Z,26.13
2023-04-15T09:48:03.355Z,26.07
2023-04-15T09:49:03.345Z,26.03
2023-04-15T09:50:03.364Z,25.97
2023-04-15T09:51:03.348Z,25.96
2023-04-15T09:52:06.064Z,25.90
2023-04-15T09:53:03.353Z,25.86
2023-04-15T09:54:03.533Z,25.85
2023-04-15T09:55:03.352Z,25.79
2023-04-15T09:56:03.358Z,25.76
2023-04-15T09:57:03.329Z,25.76
2023-04-15T09:58:03.323Z,25.75
2023-04-15T09:59:03.326Z,25.76
2023-04-15T10:00:03.331Z,25.76
2023-04-15T10:01:03.339Z,25.78
2023-04-15T10:02:03.346Z,25.79
2023-04-15T10:03:03.438Z,25.85
2023-04-15T10:04:03.682Z,25.88
2023-04-15T10:05:03.307Z,25.85
2023-04-15T10:06:03.332Z,25.88
2023-04-15T10:07:03.363Z,25.90
2023-04-15T10:08:03.316Z,25.90
2023-04-15T10:09:03.325Z,25.97
2023-04-15T10:10:03.307Z,26.01
2023-04-15T10:11:03.305Z,26.06
2023-04-15T10:12:03.286Z,26.08
2023-04-15T10:13:03.291Z,26.12
2023-04-15T10:14:03.583Z,26.12
2023-04-15T10:15:03.281Z,26.14
2023-04-15T10:16:03.313Z,26.16
2023-04-15T10:17:03.282Z,26.16
2023-04-15T10:18:03.337Z,26.19
2023-04-15T10:19:03.304Z,26.20
2023-04-15T10:20:03.286Z,26.21
2023-04-15T10:21:03.351Z,26.21
2023-04-15T10:22:03.395Z,26.24
2023-04-15T10:23:03.427Z,26.23
2023-04-15T10:24:03.727Z,26.24
2023-04-15T10:25:03.519Z,26.26
2023-04-15T10:26:03.544Z,26.24
2023-04-15T10:27:03.591Z,26.26
2023-04-15T10:28:03.638Z,26.27
2023-04-15T10:29:03.677Z,26.26
2023-04-15T10:30:03.720Z,26.30
2023-04-15T10:31:03.792Z,26.30
2023-04-15T10:32:03.789Z,26.31
2023-04-15T10:33:03.826Z,26.34
2023-04-15T10:34:04.201Z,26.34
2023-04-15T10:35:03.939Z,26.35
2023-04-15T10:36:03.964Z,26.35
2023-04-15T10:37:04.013Z,26.37
2023-04-15T10:38:04.051Z,26.39
2023-04-15T10:39:04.074Z,26.39
2023-04-15T10:40:04.132Z,26.41
2023-04-15T10:41:04.147Z,26.44
2023-04-15T10:42:04.193Z,26.44
2023-04-15T10:43:04.236Z,26.42
2023-04-15T10:44:04.679Z,26.44
2023-04-15T10:45:04.295Z,26.44
2023-04-15T10:46:04.377Z,26.45
2023-04-15T10:47:04.384Z,26.42
2023-04-15T10:48:04.461Z,26.48
2023-04-15T10:49:04.434Z,26.44
2023-04-15T10:50:04.468Z,26.44
2023-04-15T10:51:04.515Z,26.45
2023-04-15T10:52:04.520Z,26.48
2023-04-15T10:53:04.554Z,26.47
2023-04-15T10:54:04.709Z,26.48
2023-04-15T10:55:04.618Z,26.44
2023-04-15T10:56:04.656Z,26.44
2023-04-15T10:57:04.687Z,26.42
2023-04-15T10:58:04.715Z,26.42
2023-04-15T10:59:04.759Z,26.42
2023-04-15T11:00:05.056Z,26.44
2023-04-15T11:01:04.830Z,26.41
2023-04-15T11:02:04.988Z,26.44
2023-04-15T11:03:04.972Z,26.41
2023-04-15T11:04:05.175Z,26.41
2023-04-15T11:05:04.992Z,26.42
2023-04-15T11:06:05.053Z,26.41
2023-04-15T11:07:05.114Z,26.42
2023-04-15T11:08:05.165Z,26.42
2023-04-15T11:09:05.197Z,26.44
2023-04-15T11:10:05.247Z,26.39
2023-04-15T11:11:05.298Z,26.41
2023-04-15T11:12:05.364Z,26.41
2023-04-15T11:13:05.412Z,26.42
2023-04-15T11:14:05.478Z,26.41
2023-04-15T11:15:05.560Z,26.39
2023-04-15T11:16:05.620Z,26.39
2023-04-15T11:17:05.645Z,26.41
2023-04-15T11:18:05.712Z,26.41
2023-04-15T11:19:05.729Z,26.37
2023-04-15T11:20:05.789Z,26.38
2023-04-15T11:21:05.840Z,26.38
2023-04-15T11:22:05.888Z,26.37
2023-04-15T11:23:13.396Z,26.38
2023-04-15T11:24:06.200Z,26.35
2023-04-15T11:25:05.937Z,26.37
2023-04-15T11:26:05.938Z,26.35
2023-04-15T11:27:05.931Z,26.32
2023-04-15T11:28:05.927Z,26.31
2023-04-15T11:29:06.069Z,26.32
2023-04-15T11:30:05.934Z,26.32
2023-04-15T11:31:05.940Z,26.30
2023-04-15T11:32:05.981Z,26.26
2023-04-15T11:33:05.901Z,26.27
2023-04-15T11:34:06.031Z,26.27
2023-04-15T11:35:05.894Z,26.24
2023-04-15T11:36:05.887Z,26.23
2023-04-15T11:37:05.874Z,26.21
2023-04-15T11:38:05.879Z,26.20
2023-04-15T11:39:05.893Z,26.20
2023-04-15T11:40:05.875Z,26.20
2023-04-15T11:41:05.877Z,26.19
2023-04-15T11:42:05.934Z,26.20
2023-04-15T11:43:05.990Z,26.19
2023-04-15T11:44:06.059Z,26.17
2023-04-15T11:45:06.131Z,26.16
2023-04-15T11:46:06.216Z,26.16
2023-04-15T11:47:06.240Z,26.17
2023-04-15T11:48:06.297Z,26.19
2023-04-15T11:49:06.431Z,26.14
2023-04-15T11:50:06.417Z,26.17
2023-04-15T11:51:06.493Z,26.17
2023-04-15T11:52:06.530Z,26.16
2023-04-15T11:53:08.514Z,26.17
2023-04-15T11:54:06.717Z,26.19
2023-04-15T11:55:06.606Z,26.17
2023-04-15T11:56:06.582Z,26.16
2023-04-15T11:57:06.586Z,26.14
2023-04-15T11:58:06.590Z,26.16
2023-04-15T11:59:06.584Z,26.14
2023-04-15T12:00:06.597Z,26.16
2023-04-15T12:01:06.596Z,26.13
2023-04-15T12:02:06.685Z,26.14
2023-04-15T12:03:06.753Z,26.14
2023-04-15T12:04:06.896Z,26.13
2023-04-15T12:05:06.625Z,26.10
2023-04-15T12:06:06.588Z,26.12
2023-04-15T12:07:06.655Z,26.14
2023-04-15T12:08:06.598Z,26.13
2023-04-15T12:09:06.601Z,26.13
2023-04-15T12:10:06.601Z,26.10
2023-04-15T12:11:06.618Z,26.10
2023-04-15T12:12:06.605Z,26.08
2023-04-15T12:13:06.592Z,26.08
2023-04-15T12:14:06.700Z,26.06
2023-04-15T12:15:06.690Z,26.08
2023-04-15T12:16:06.772Z,26.07
2023-04-15T12:17:06.839Z,26.06
2023-04-15T12:18:06.904Z,26.06
2023-04-15T12:19:06.950Z,26.06
2023-04-15T12:20:06.982Z,26.07
2023-04-15T12:21:07.021Z,26.06
2023-04-15T12:22:07.053Z,26.03
2023-04-15T12:23:07.116Z,26.03
2023-04-15T12:24:07.236Z,26.03
2023-04-15T12:25:07.213Z,26.06
2023-04-15T12:26:07.280Z,26.03
2023-04-15T12:27:07.376Z,26.03
2023-04-15T12:28:07.402Z,26.03
2023-04-15T12:29:07.468Z,26.03
2023-04-15T12:30:07.523Z,26.03
2023-04-15T12:31:07.649Z,26.03
2023-04-15T12:32:07.702Z,26.01
2023-04-15T12:33:07.776Z,26.01
2023-04-15T12:34:07.808Z,26.06
2023-04-15T12:35:07.856Z,26.03
2023-04-15T12:36:07.940Z,26.04
2023-04-15T12:37:07.980Z,26.01
2023-04-15T12:38:08.048Z,26.04
2023-04-15T12:39:08.109Z,26.06
2023-04-15T12:40:08.208Z,26.06
2023-04-15T12:41:08.231Z,26.01
2023-04-15T12:42:08.303Z,26.04
2023-04-15T12:43:08.391Z,26.06
2023-04-15T12:44:08.436Z,26.06
2023-04-15T12:45:08.512Z,26.03
2023-04-15T12:46:08.710Z,26.03
2023-04-15T12:47:08.625Z,26.04
2023-04-15T12:48:08.697Z,26.06
2023-04-15T12:49:08.762Z,26.04
2023-04-15T12:50:08.866Z,26.01
2023-04-15T12:51:08.900Z,26.03
2023-04-15T12:52:08.964Z,26.04
2023-04-15T12:53:09.009Z,26.03